Time;durP1;ratioP1;P1;durP2;ratioP2;P2;SDS_P1;SDS_P2;PMS_P1;PMS_P2;Temp;Humidity;BMP_temperature;BMP_pressure;BME280_temperature;BME280_humidity;BME280_pressure;Samples;Min_cycle;Max_cycle;Signal;HPM_P1;HPM_P2
2022/11/16 00:01:02;;;;;;;11.30;4.63;;;24.80;99.90;;;;;;5013274;28;20050;-47
2022/11/16 00:03:30;;;;;;;8.90;4.13;;;24.70;99.90;;;;;;5013373;28;20514;-47
2022/11/16 00:06:01;;;;;;;8.88;4.03;;;24.70;99.90;;;;;;5013115;28;20018;-47
2022/11/16 00:08:32;;;;;;;8.02;4.28;;;24.70;99.90;;;;;;5013251;28;20022;-46
2022/11/16 00:11:04;;;;;;;11.98;4.97;;;24.70;99.90;;;;;;5013338;28;20033;-45
2022/11/16 00:13:35;;;;;;;11.48;4.85;;;24.70;99.90;;;;;;5002964;28;20026;-46
2022/11/16 00:16:00;;;;;;;9.60;4.72;;;24.70;99.90;;;;;;5017313;28;20040;-46
2022/11/16 00:18:27;;;;;;;8.23;5.00;;;24.70;99.90;;;;;;5013334;28;20018;-45
2022/11/16 00:20:53;;;;;;;9.95;5.10;;;24.70;99.90;;;;;;5012947;28;20014;-45
2022/11/16 00:23:19;;;;;;;12.75;5.35;;;24.70;99.90;;;;;;5013359;28;20072;-45
2022/11/16 00:25:45;;;;;;;11.75;6.03;;;24.70;99.90;;;;;;5012973;28;20022;-46
2022/11/16 00:28:11;;;;;;;10.10;5.82;;;24.70;99.90;;;;;;5012859;28;20018;-47
2022/11/16 00:30:37;;;;;;;9.52;5.85;;;24.70;99.90;;;;;;5013166;28;20021;-47
2022/11/16 00:33:04;;;;;;;8.95;5.95;;;24.70;99.90;;;;;;5000940;28;20030;-45
2022/11/16 00:35:30;;;;;;;9.73;5.43;;;24.70;99.90;;;;;;4993586;28;20438;-45
2022/11/16 00:37:56;;;;;;;9.88;6.15;;;24.70;99.90;;;;;;4991810;28;20504;-45
2022/11/16 00:40:22;;;;;;;11.48;6.18;;;24.70;99.90;;;;;;4991862;28;20027;-45
2022/11/16 00:42:48;;;;;;;11.63;6.32;;;24.70;99.90;;;;;;4992453;28;20113;-47
2022/11/16 00:45:14;;;;;;;9.07;5.68;;;24.70;99.90;;;;;;5008237;28;20121;-47
2022/11/16 00:47:40;;;;;;;10.57;4.95;;;24.70;99.90;;;;;;5012841;28;20029;-48
2022/11/16 00:50:05;;;;;;;13.00;5.90;;;24.70;99.90;;;;;;5027626;28;20059;-45
2022/11/16 00:52:31;;;;;;;8.63;5.00;;;24.70;99.90;;;;;;5015954;28;20080;-46
2022/11/16 00:54:57;;;;;;;7.53;3.80;;;24.70;99.90;;;;;;5016718;28;20119;-47
2022/11/16 00:57:23;;;;;;;10.05;4.65;;;24.70;99.90;;;;;;5015061;28;20037;-46
2022/11/16 00:59:48;;;;;;;9.32;4.20;;;24.70;99.90;;;;;;5016736;22;20051;-52
2022/11/16 01:02:14;;;;;;;7.55;4.18;;;24.70;99.90;;;;;;4970023;28;20029;-53
2022/11/16 01:04:40;;;;;;;7.32;4.57;;;24.70;99.90;;;;;;4990627;28;20113;-52
2022/11/16 01:07:06;;;;;;;11.30;4.47;;;24.70;99.90;;;;;;4996803;28;20475;-52
2022/11/16 01:09:32;;;;;;;7.68;3.88;;;24.70;99.90;;;;;;4979718;28;20485;-53
2022/11/16 01:12:09;;;;;;;7.38;4.13;;;24.70;99.90;;;;;;4980452;28;20014;-52
2022/11/16 01:14:42;;;;;;;7.60;3.83;;;24.70;99.90;;;;;;4982806;28;20025;-53
2022/11/16 01:17:08;;;;;;;7.10;4.00;;;24.70;99.90;;;;;;4996534;28;20038;-52
2022/11/16 01:19:35;;;;;;;7.57;3.90;;;24.70;99.90;;;;;;4996322;28;20431;-52
2022/11/16 01:22:01;;;;;;;6.03;3.22;;;24.70;99.90;;;;;;4993975;28;20035;-52
2022/11/16 01:24:27;;;;;;;6.68;3.55;;;24.70;99.90;;;;;;4976430;28;20019;-52
2022/11/16 01:26:57;;;;;;;5.13;2.95;;;24.70;99.90;;;;;;4976052;28;20030;-52
2022/11/16 01:29:28;;;;;;;5.82;2.50;;;24.70;99.90;;;;;;4975686;28;20019;-52
2022/11/16 01:31:54;;;;;;;5.22;3.10;;;24.70;99.90;;;;;;4976237;28;20039;-52
2022/11/16 01:34:21;;;;;;;3.65;2.50;;;24.70;99.90;;;;;;4975374;28;20018;-52
2022/11/16 01:36:47;;;;;;;5.85;2.53;;;24.70;99.90;;;;;;4976679;28;20035;-53
2022/11/16 01:39:13;;;;;;;4.20;2.95;;;24.70;99.90;;;;;;4976651;28;20527;-53
2022/11/16 01:41:41;;;;;;;5.20;2.83;;;24.60;99.90;;;;;;4988584;28;20026;-53
2022/11/16 01:44:32;;;;;;;4.38;2.15;;;24.60;99.90;;;;;;4995954;28;20018;-53
2022/11/16 01:46:58;;;;;;;4.53;2.65;;;24.60;99.90;;;;;;4995798;28;20026;-52
2022/11/16 01:49:28;;;;;;;5.38;2.30;;;24.60;99.90;;;;;;4991483;28;20037;-51
2022/11/16 01:52:04;;;;;;;5.97;2.47;;;24.60;99.90;;;;;;4978485;28;20078;-50
2022/11/16 01:54:34;;;;;;;3.03;1.75;;;24.60;99.90;;;;;;4995914;28;20022;-50
2022/11/16 01:57:04;;;;;;;4.43;1.80;;;24.60;99.90;;;;;;4970862;28;20477;-52
2022/11/16 01:59:30;;;;;;;6.07;2.33;;;24.60;99.90;;;;;;4999984;23;20046;-45
2022/11/16 02:01:58;;;;;;;5.22;1.88;;;24.60;99.90;;;;;;4990032;28;20039;-46
2022/11/16 02:04:24;;;;;;;5.18;1.95;;;24.60;99.90;;;;;;4989479;28;20117;-45
2022/11/16 02:07:14;;;;;;;5.93;2.30;;;24.50;99.90;;;;;;4977095;28;20019;-45
2022/11/16 02:10:28;;;;;;;3.30;1.52;;;24.50;99.90;;;;;;4991809;28;20427;-45
2022/11/16 02:13:15;;;;;;;5.32;1.63;;;24.50;99.90;;;;;;4983410;28;20027;-47
2022/11/16 02:16:13;;;;;;;3.25;1.63;;;24.50;99.90;;;;;;4980546;28;20039;-45
2022/11/16 02:18:56;;;;;;;6.03;2.60;;;24.50;99.90;;;;;;4970677;28;20022;-46
2022/11/16 02:21:36;;;;;;;4.32;1.70;;;24.50;99.90;;;;;;4977364;28;20106;-46
2022/11/16 02:24:20;;;;;;;4.95;1.70;;;24.50;99.90;;;;;;4977909;28;20380;-46
2022/11/16 02:27:01;;;;;;;4.30;1.60;;;24.50;99.90;;;;;;4980456;28;20059;-46
2022/11/16 02:29:45;;;;;;;5.20;1.95;;;24.50;99.90;;;;;;4977231;28;20031;-47
2022/11/16 02:32:25;;;;;;;5.95;2.03;;;24.50;99.90;;;;;;4995308;28;20023;-46
2022/11/16 02:35:01;;;;;;;2.90;1.13;;;24.50;99.90;;;;;;4976928;28;20019;-46
2022/11/16 02:37:32;;;;;;;3.72;1.33;;;24.40;99.90;;;;;;4975322;28;20038;-46
2022/11/16 02:40:01;;;;;;;5.28;1.23;;;24.40;99.90;;;;;;4974166;28;20027;-46
2022/11/16 02:42:39;;;;;;;3.65;1.50;;;24.40;99.90;;;;;;4975101;28;20386;-46
2022/11/16 02:45:07;;;;;;;8.70;1.48;;;24.50;99.90;;;;;;4976981;28;20061;-46
2022/11/16 02:47:35;;;;;;;3.90;1.63;;;24.40;99.90;;;;;;4994738;28;20033;-46
2022/11/16 02:50:10;;;;;;;4.60;1.13;;;24.50;99.90;;;;;;4994369;28;20019;-47
2022/11/16 02:52:37;;;;;;;3.55;1.02;;;24.40;99.90;;;;;;4993901;28;20095;-47
2022/11/16 02:55:03;;;;;;;2.83;1.13;;;24.40;99.90;;;;;;4977321;28;20411;-46
2022/11/16 02:57:50;;;;;;;7.07;1.63;;;24.40;99.90;;;;;;4963028;28;20514;-46
2022/11/16 03:00:26;;;;;;;5.55;1.02;;;24.40;99.90;;;;;;4995060;28;20125;-46
2022/11/16 03:03:11;;;;;;;3.17;1.10;;;24.40;99.90;;;;;;4987748;28;20031;-47
2022/11/16 03:05:47;;;;;;;3.72;1.20;;;24.40;99.90;;;;;;4990225;28;20026;-46
2022/11/16 03:08:22;;;;;;;4.03;0.95;;;24.40;99.90;;;;;;4994744;28;20026;-46
2022/11/16 03:13:45;;;;;;;2.90;0.90;;;24.40;99.90;;;;;;4980905;28;20053;-48
2022/11/16 03:16:35;;;;;;;2.40;0.85;;;24.40;99.90;;;;;;4983869;28;20043;-48
2022/11/16 03:19:05;;;;;;;1.38;0.73;;;24.40;99.90;;;;;;4989836;28;20026;-47
2022/11/16 03:21:46;;;;;;;3.67;0.98;;;24.40;99.90;;;;;;4993789;28;20026;-48
2022/11/16 03:24:13;;;;;;;2.53;1.10;;;24.40;99.90;;;;;;4976497;28;20057;-47
2022/11/16 03:27:00;;;;;;;5.85;1.25;;;24.30;99.90;;;;;;4993549;28;20602;-48
2022/11/16 03:29:31;;;;;;;4.43;1.50;;;24.30;99.90;;;;;;4992849;28;20028;-48
2022/11/16 03:32:20;;;;;;;6.47;1.23;;;24.30;99.90;;;;;;4993943;28;20033;-48
2022/11/16 03:35:20;;;;;;;3.85;1.30;;;24.30;99.90;;;;;;4994037;28;20034;-46
2022/11/16 03:37:48;;;;;;;12.50;1.65;;;24.30;99.90;;;;;;4911777;28;20411;-47
2022/11/16 03:40:16;;;;;;;5.70;1.60;;;24.30;99.90;;;;;;4994201;28;20427;-46
2022/11/16 03:42:43;;;;;;;2.15;1.42;;;24.30;99.90;;;;;;4993136;28;20022;-47
2022/11/16 03:45:11;;;;;;;3.53;1.40;;;24.30;99.90;;;;;;4992730;28;20369;-47
2022/11/16 03:47:36;;;;;;;5.38;1.52;;;24.30;99.90;;;;;;4993712;28;20026;-47
2022/11/16 03:50:02;;;;;;;5.10;1.45;;;24.30;99.90;;;;;;4994100;28;20041;-48
2022/11/16 03:52:29;;;;;;;8.88;2.05;;;24.30;99.90;;;;;;4993466;28;20080;-47
2022/11/16 03:54:54;;;;;;;3.17;1.63;;;24.30;99.90;;;;;;4976876;28;20014;-47
2022/11/16 03:57:20;;;;;;;3.47;1.48;;;24.30;99.90;;;;;;4994009;28;20424;-47
2022/11/16 03:59:46;;;;;;;4.28;1.77;;;24.30;99.90;;;;;;5003163;23;20055;-45
2022/11/16 04:02:12;;;;;;;4.07;2.00;;;24.30;99.90;;;;;;4974562;28;20049;-44
2022/11/16 04:29:18;;;;;;;6.50;2.25;;;24.20;99.90;;;;;;4978405;28;20510;-44
2022/11/16 04:39:58;;;;;;;5.32;1.95;;;24.30;99.90;;;;;;4978480;28;20037;-44
2022/11/16 04:42:24;;;;;;;8.52;2.40;;;24.20;99.90;;;;;;4977996;28;20027;-44
2022/11/16 04:47:34;;;;;;;3.20;1.83;;;24.30;99.90;;;;;;4978201;28;20073;-44
2022/11/16 04:50:00;;;;;;;5.03;2.15;;;24.30;99.90;;;;;;4977823;28;20034;-44
2022/11/16 04:52:25;;;;;;;4.97;2.17;;;24.20;99.90;;;;;;4977840;28;20423;-44
2022/11/16 04:54:51;;;;;;;5.60;2.97;;;24.20;99.90;;;;;;4977841;28;20046;-45
2022/11/16 04:57:17;;;;;;;6.82;2.08;;;24.20;99.90;;;;;;4977751;28;20475;-44
2022/11/16 04:59:42;;;;;;;3.55;2.00;;;24.20;99.90;;;;;;4978476;28;20093;-45
2022/11/16 05:02:08;;;;;;;4.30;2.42;;;24.30;99.90;;;;;;4976988;28;20031;-45
2022/11/16 05:04:39;;;;;;;4.90;2.25;;;24.20;99.90;;;;;;4977653;28;20027;-45
2022/11/16 05:07:09;;;;;;;5.63;2.38;;;24.20;99.90;;;;;;4977647;28;20026;-45
2022/11/16 05:09:41;;;;;;;6.35;3.05;;;24.20;99.90;;;;;;4977664;28;20018;-45
2022/11/16 05:12:17;;;;;;;6.45;2.55;;;24.30;99.90;;;;;;4977629;28;20058;-45
2022/11/16 05:14:44;;;;;;;4.97;2.40;;;24.20;99.90;;;;;;4977522;28;20023;-45
2022/11/16 05:17:10;;;;;;;4.57;2.42;;;24.20;99.90;;;;;;4976197;28;20031;-45
2022/11/16 05:22:23;;;;;;;6.20;3.35;;;24.20;99.90;;;;;;4947348;28;20390;-45
2022/11/16 05:24:49;;;;;;;4.83;2.30;;;24.20;99.90;;;;;;4977391;28;20157;-45
2022/11/16 05:27:16;;;;;;;4.57;2.50;;;24.20;99.90;;;;;;4977342;28;20489;-45
2022/11/16 05:29:42;;;;;;;3.33;1.95;;;24.20;99.90;;;;;;4977127;28;20118;-45
2022/11/16 05:32:10;;;;;;;8.77;2.95;;;24.20;99.90;;;;;;4977106;28;20030;-45
2022/11/16 05:34:36;;;;;;;4.95;2.38;;;24.20;99.90;;;;;;4977004;28;20019;-44
2022/11/16 05:37:02;;;;;;;7.75;2.28;;;24.20;99.90;;;;;;4976552;28;20371;-44
2022/11/16 05:39:27;;;;;;;3.33;2.30;;;24.20;99.90;;;;;;4977038;28;20026;-45
2022/11/16 05:41:53;;;;;;;6.57;2.03;;;24.20;99.90;;;;;;4977049;28;20446;-45
2022/11/16 05:44:19;;;;;;;4.80;2.55;;;24.20;99.90;;;;;;4975873;28;20490;-45
2022/11/16 05:46:46;;;;;;;5.70;2.78;;;24.20;99.90;;;;;;4976871;28;20050;-45
2022/11/16 05:49:13;;;;;;;3.40;2.30;;;24.20;99.90;;;;;;4977004;28;20027;-45
2022/11/16 05:51:40;;;;;;;4.13;1.90;;;24.20;99.90;;;;;;4976926;28;20058;-45
2022/11/16 05:54:06;;;;;;;5.00;2.45;;;24.20;99.90;;;;;;4976844;28;20500;-45
2022/11/16 05:56:33;;;;;;;4.85;2.45;;;24.20;99.90;;;;;;4976748;28;20077;-45
2022/11/16 05:58:59;;;;;;;5.00;2.33;;;24.20;99.90;;;;;;4959450;28;20073;-45
2022/11/16 06:01:25;;;;;;;3.67;2.30;;;24.20;99.90;;;;;;4976467;28;20516;-45
2022/11/16 06:03:51;;;;;;;4.80;2.47;;;24.20;99.90;;;;;;4976808;28;20162;-45
2022/11/16 06:06:19;;;;;;;3.38;2.30;;;24.20;99.90;;;;;;4976505;28;20058;-45
2022/11/16 06:08:44;;;;;;;3.47;2.08;;;24.20;99.90;;;;;;4976750;28;20054;-45
2022/11/16 06:11:11;;;;;;;6.13;2.85;;;24.20;99.90;;;;;;4976372;28;20454;-45
2022/11/16 06:13:37;;;;;;;6.10;2.03;;;24.20;99.90;;;;;;4976412;28;20105;-46
2022/11/16 06:16:04;;;;;;;6.03;2.38;;;24.20;99.90;;;;;;4976566;28;20027;-45
2022/11/16 06:18:30;;;;;;;5.00;2.13;;;24.20;99.90;;;;;;4975059;28;20031;-45
2022/11/16 06:20:56;;;;;;;4.32;2.00;;;24.20;99.90;;;;;;4959035;28;20023;-45
2022/11/16 06:23:22;;;;;;;3.70;2.08;;;24.10;99.90;;;;;;4976235;28;20482;-45
2022/11/16 06:25:54;;;;;;;5.35;2.47;;;24.10;99.90;;;;;;4976369;28;20094;-46
2022/11/16 06:28:20;;;;;;;5.93;2.25;;;24.10;99.90;;;;;;4976318;28;20030;-46
2022/11/16 06:30:47;;;;;;;6.80;2.25;;;24.10;99.90;;;;;;4976194;28;20026;-45
2022/11/16 06:33:13;;;;;;;6.00;2.22;;;24.10;99.90;;;;;;4976025;28;20463;-45
2022/11/16 06:35:39;;;;;;;4.28;2.63;;;24.10;99.90;;;;;;4975979;28;20093;-45
2022/11/16 06:38:05;;;;;;;3.17;2.15;;;24.10;99.90;;;;;;4975940;28;20031;-45
2022/11/16 06:40:32;;;;;;;5.60;2.10;;;24.10;99.90;;;;;;4975945;28;20439;-45
2022/11/16 06:42:58;;;;;;;3.28;2.05;;;24.10;99.90;;;;;;4976113;28;20058;-46
2022/11/16 06:45:24;;;;;;;6.63;2.50;;;24.10;99.90;;;;;;4976084;28;20022;-44
2022/11/16 06:47:50;;;;;;;3.38;2.13;;;24.10;99.90;;;;;;4958601;28;20023;-44
2022/11/16 06:50:19;;;;;;;6.35;3.75;;;24.10;99.90;;;;;;4974906;28;20352;-44
2022/11/16 06:52:46;;;;;;;4.97;2.03;;;24.10;99.90;;;;;;4975751;28;20059;-45
2022/11/16 06:55:12;;;;;;;4.93;2.28;;;24.10;99.90;;;;;;4975579;28;20027;-46
2022/11/16 06:57:38;;;;;;;3.58;2.28;;;24.10;99.90;;;;;;4975556;28;20121;-44
2022/11/16 07:00:05;;;;;;;5.30;2.40;;;24.10;99.90;;;;;;4975363;28;20050;-44
2022/11/16 07:02:31;;;;;;;5.47;2.28;;;24.10;99.90;;;;;;4975551;28;20490;-46
2022/11/16 07:04:57;;;;;;;5.32;2.30;;;24.10;99.90;;;;;;4975394;28;20035;-45
2022/11/16 07:07:23;;;;;;;5.25;2.17;;;24.10;99.90;;;;;;4974341;28;20038;-45
2022/11/16 07:09:48;;;;;;;3.45;2.20;;;24.10;99.90;;;;;;4975427;28;20483;-46
2022/11/16 07:12:14;;;;;;;3.53;2.22;;;24.10;99.90;;;;;;4975460;28;20117;-45
2022/11/16 07:14:40;;;;;;;2.95;2.10;;;24.10;99.90;;;;;;4975281;28;20038;-44
2022/11/16 07:17:06;;;;;;;3.78;2.33;;;24.10;99.90;;;;;;4974361;28;20086;-44
2022/11/16 07:19:32;;;;;;;3.88;1.90;;;24.10;99.90;;;;;;4975129;28;20031;-45
2022/11/16 07:21:58;;;;;;;4.57;2.05;;;24.10;99.90;;;;;;4975290;28;20023;-45
2022/11/16 07:24:24;;;;;;;4.72;2.20;;;24.10;99.90;;;;;;4975210;28;20021;-46
2022/11/16 07:26:50;;;;;;;6.13;2.47;;;24.10;99.90;;;;;;4973655;28;20471;-45
2022/11/16 07:29:16;;;;;;;5.03;2.30;;;24.10;99.90;;;;;;4974993;28;20029;-45
2022/11/16 07:31:41;;;;;;;7.38;2.60;;;24.10;99.90;;;;;;4974891;28;20037;-45
2022/11/16 07:34:07;;;;;;;4.30;2.40;;;24.10;99.90;;;;;;4975052;28;20073;-45
2022/11/16 07:36:33;;;;;;;4.97;2.78;;;24.10;99.90;;;;;;4975069;28;20071;-45
2022/11/16 07:38:59;;;;;;;6.00;2.97;;;24.10;99.90;;;;;;4974854;28;20387;-45
2022/11/16 07:41:24;;;;;;;3.13;2.30;;;24.10;99.90;;;;;;4974988;28;20486;-45
2022/11/16 07:43:50;;;;;;;3.63;2.40;;;24.10;99.90;;;;;;4975003;28;20419;-44
2022/11/16 07:46:22;;;;;;;4.40;2.42;;;24.10;99.90;;;;;;4974611;28;20030;-44
2022/11/16 07:48:47;;;;;;;3.08;2.22;;;24.10;99.90;;;;;;4974624;28;20106;-44
2022/11/16 07:51:15;;;;;;;4.38;2.40;;;24.10;99.90;;;;;;4974671;28;20106;-45
2022/11/16 07:53:41;;;;;;;6.78;2.47;;;24.10;99.90;;;;;;4974631;28;20490;-44
2022/11/16 07:56:08;;;;;;;3.85;2.30;;;24.10;99.90;;;;;;4974536;28;20502;-44
2022/11/16 07:58:34;;;;;;;4.80;2.88;;;24.10;99.90;;;;;;4974826;28;20027;-45
2022/11/16 08:01:11;;;;;;;6.03;2.42;;;24.10;99.90;;;;;;4957016;28;20053;-45
2022/11/16 08:03:38;;;;;;;5.55;2.55;;;24.10;99.90;;;;;;4973458;28;20364;-44
2022/11/16 08:06:13;;;;;;;7.28;2.50;;;24.10;99.90;;;;;;4974578;28;20038;-45
2022/11/16 08:08:39;;;;;;;6.18;2.55;;;24.10;99.90;;;;;;4974533;28;20034;-45
2022/11/16 08:11:07;;;;;;;6.10;2.58;;;24.10;99.90;;;;;;4974465;28;20023;-44
2022/11/16 08:13:35;;;;;;;3.00;1.95;;;24.10;99.90;;;;;;4974348;28;20023;-45
2022/11/16 08:16:02;;;;;;;5.60;3.85;;;24.10;99.90;;;;;;4974456;28;20027;-44
2022/11/16 08:18:29;;;;;;;5.70;3.90;;;24.10;99.90;;;;;;4957218;28;20023;-44
2022/11/16 08:20:54;;;;;;;4.03;3.40;;;24.10;99.90;;;;;;4974427;28;20497;-44
2022/11/16 08:23:20;;;;;;;3.97;2.75;;;24.10;99.90;;;;;;4957139;28;20019;-44
2022/11/16 08:25:46;;;;;;;3.45;2.38;;;24.10;99.90;;;;;;4974344;28;20019;-47
2022/11/16 08:28:13;;;;;;;3.72;2.83;;;24.10;99.90;;;;;;4974227;28;20031;-44
2022/11/16 08:30:39;;;;;;;8.50;3.00;;;24.10;99.90;;;;;;4974405;28;20022;-44
2022/11/16 08:33:06;;;;;;;6.15;2.80;;;24.10;99.90;;;;;;4974178;28;20027;-44
2022/11/16 08:35:33;;;;;;;4.95;2.60;;;24.20;99.90;;;;;;4974281;28;20019;-45
2022/11/16 08:38:00;;;;;;;5.83;2.77;;;24.10;99.90;;;;;;4974255;28;20395;-46
2022/11/16 08:40:26;;;;;;;3.95;2.88;;;24.10;99.90;;;;;;4974194;28;20264;-44
2022/11/16 08:42:55;;;;;;;5.22;3.10;;;24.20;99.90;;;;;;4974259;28;20522;-45
2022/11/16 08:45:26;;;;;;;4.43;3.00;;;24.20;99.90;;;;;;4974148;28;20479;-44
2022/11/16 08:47:52;;;;;;;5.18;3.78;;;24.20;99.90;;;;;;4974170;28;20030;-45
2022/11/16 08:50:18;;;;;;;7.60;5.15;;;24.20;99.90;;;;;;4974015;28;20031;-45
2022/11/16 08:52:43;;;;;;;9.90;4.68;;;24.20;99.90;;;;;;4974206;28;20038;-45
2022/11/16 08:55:12;;;;;;;5.68;3.78;;;24.20;99.90;;;;;;4974150;28;20387;-45
2022/11/16 08:57:38;;;;;;;5.15;2.95;;;24.20;99.90;;;;;;4956907;28;20396;-45
2022/11/16 09:00:06;;;;;;;8.00;3.95;;;24.20;99.90;;;;;;4973899;28;20054;-45
2022/11/16 09:02:31;;;;;;;6.60;4.50;;;24.20;99.90;;;;;;4972558;28;20031;-45
2022/11/16 09:04:57;;;;;;;5.95;3.80;;;24.20;99.90;;;;;;4956504;28;20030;-45
2022/11/16 09:07:23;;;;;;;7.90;4.80;;;24.20;99.90;;;;;;4974128;28;20035;-45
2022/11/16 09:09:49;;;;;;;6.55;3.67;;;24.20;99.90;;;;;;4973857;28;20074;-45
2022/11/16 09:12:14;;;;;;;5.38;3.25;;;24.20;99.90;;;;;;4975119;28;20463;-45
2022/11/16 09:14:40;;;;;;;7.53;3.75;;;24.20;99.90;;;;;;4977481;28;20030;-45
2022/11/16 09:17:06;;;;;;;7.13;3.95;;;24.20;99.90;;;;;;4977204;28;20051;-45
2022/11/16 09:19:32;;;;;;;7.95;4.07;;;24.20;99.90;;;;;;4977401;28;20086;-47
2022/11/16 09:21:57;;;;;;;7.63;3.60;;;24.20;99.90;;;;;;4977348;28;20053;-45
2022/11/16 09:24:23;;;;;;;5.05;3.45;;;24.20;99.90;;;;;;4977473;28;20467;-45
2022/11/16 09:26:49;;;;;;;5.07;3.80;;;24.20;99.90;;;;;;4960046;28;20035;-45
2022/11/16 09:29:15;;;;;;;5.60;3.63;;;24.20;99.90;;;;;;4976984;28;20035;-45
2022/11/16 09:31:41;;;;;;;5.07;3.05;;;24.20;99.90;;;;;;4977270;28;20528;-46
2022/11/16 09:34:08;;;;;;;6.63;3.55;;;24.20;99.90;;;;;;4977183;28;20023;-45
2022/11/16 09:36:34;;;;;;;8.63;3.78;;;24.20;99.90;;;;;;4977202;28;20043;-45
2022/11/16 09:39:01;;;;;;;7.70;4.20;;;24.20;99.90;;;;;;4977160;28;20033;-45
2022/11/16 09:41:51;;;;;;;5.88;3.22;;;24.20;99.90;;;;;;4977057;28;20022;-45
2022/11/16 09:44:22;;;;;;;5.13;3.60;;;24.20;99.90;;;;;;4975489;28;20031;-45
2022/11/16 09:46:54;;;;;;;9.80;3.50;;;24.20;99.90;;;;;;4976833;28;20058;-45
2022/11/16 09:49:36;;;;;;;6.82;3.45;;;24.20;99.90;;;;;;4959939;28;20035;-45
2022/11/16 09:52:08;;;;;;;8.25;3.83;;;24.20;99.90;;;;;;4976751;28;20067;-45
2022/11/16 09:54:39;;;;;;;5.05;3.78;;;24.20;99.90;;;;;;4976889;28;20027;-45
2022/11/16 09:57:12;;;;;;;7.30;3.72;;;24.10;99.90;;;;;;4976716;28;20041;-45
2022/11/16 09:59:50;;;;;;;6.70;4.28;;;24.10;99.90;;;;;;4976501;28;20026;-44
2022/11/16 10:02:22;;;;;;;;;;;24.20;99.90;;;;;;4976970;28;20027;-44
2022/11/16 10:04:59;;;;;;;5.60;4.25;;;24.20;99.90;;;;;;4976730;28;19913;-44
2022/11/16 10:07:34;;;;;;;5.90;3.95;;;24.20;99.90;;;;;;4976564;28;20029;-44
2022/11/16 10:10:00;;;;;;;8.95;4.45;;;24.20;99.90;;;;;;4976438;28;20364;-44
2022/11/16 10:12:47;;;;;;;7.00;4.40;;;24.20;99.90;;;;;;4976413;28;20026;-44
2022/11/16 10:15:30;;;;;;;8.27;4.10;;;24.10;99.90;;;;;;4976205;28;20034;-44
2022/11/16 10:18:19;;;;;;;5.00;3.75;;;24.20;99.90;;;;;;4976441;28;20051;-45
2022/11/16 10:20:57;;;;;;;7.15;4.57;;;24.20;99.90;;;;;;4976217;28;20019;-44
2022/11/16 10:23:41;;;;;;;6.97;4.25;;;24.20;99.90;;;;;;4975129;28;20106;-44
2022/11/16 10:26:19;;;;;;;6.68;3.97;;;24.20;99.90;;;;;;4976224;28;20547;-44
2022/11/16 10:29:13;;;;;;;7.75;4.18;;;24.30;99.90;;;;;;4976014;28;20471;-44
2022/11/16 10:31:45;;;;;;;6.18;3.72;;;24.30;99.90;;;;;;4961203;28;20034;-44
2022/11/16 10:34:34;;;;;;;6.47;4.40;;;24.40;99.90;;;;;;4975906;28;20085;-44
2022/11/16 10:37:05;;;;;;;8.15;4.40;;;24.40;99.90;;;;;;4975935;28;20054;-44
2022/11/16 10:39:33;;;;;;;8.15;4.50;;;24.40;99.90;;;;;;4975931;28;20110;-44
2022/11/16 10:42:08;;;;;;;7.75;4.15;;;24.50;99.90;;;;;;4975853;28;20026;-44
2022/11/16 10:44:41;;;;;;;6.00;4.00;;;24.50;99.90;;;;;;4975855;28;20565;-44
2022/11/16 10:47:45;;;;;;;8.07;4.18;;;24.60;99.90;;;;;;4975603;28;20066;-44
2022/11/16 10:50:59;;;;;;;6.60;4.50;;;24.60;99.90;;;;;;4968317;28;20035;-45
2022/11/16 10:53:38;;;;;;;7.85;4.35;;;24.60;99.90;;;;;;4953497;28;20034;-44
2022/11/16 10:56:39;;;;;;;7.20;4.40;;;24.70;99.90;;;;;;4975489;28;20082;-45
2022/11/16 10:59:07;;;;;;;9.82;4.35;;;24.80;99.90;;;;;;4953945;28;20054;-44
2022/11/16 11:01:37;;;;;;;7.93;4.72;;;24.80;99.90;;;;;;4975347;28;20046;-44
2022/11/16 11:04:26;;;;;;;7.28;4.25;;;24.80;99.90;;;;;;4975561;28;20031;-44
2022/11/16 11:06:51;;;;;;;6.95;3.97;;;24.90;99.90;;;;;;4974058;28;20023;-43
2022/11/16 11:09:34;;;;;;;6.70;3.95;;;25.00;99.90;;;;;;4975155;28;20064;-43
2022/11/16 11:15:21;;;;;;;7.13;3.45;;;25.00;99.90;;;;;;4975240;28;20070;-43
2022/11/16 11:17:49;;;;;;;7.75;4.10;;;25.00;99.90;;;;;;4974725;28;20519;-44
2022/11/16 11:20:15;;;;;;;7.78;4.40;;;25.00;99.90;;;;;;4974882;28;20058;-44
2022/11/16 11:22:59;;;;;;;6.22;4.38;;;25.00;99.90;;;;;;4974943;28;20408;-44
2022/11/16 11:25:32;;;;;;;7.28;3.90;;;25.10;99.90;;;;;;4974807;28;20018;-43
2022/11/16 11:28:23;;;;;;;8.65;4.05;;;25.00;99.90;;;;;;4974750;28;20023;-44
2022/11/16 11:31:10;;;;;;;6.10;3.58;;;25.00;99.90;;;;;;4974365;28;20412;-44
2022/11/16 11:33:40;;;;;;;7.07;3.88;;;25.10;99.90;;;;;;4973805;28;20034;-45
2022/11/16 11:36:31;;;;;;;5.82;4.07;;;25.00;99.90;;;;;;4973938;28;20039;-44
2022/11/16 11:39:12;;;;;;;8.70;3.78;;;25.10;99.90;;;;;;4957126;28;20039;-45
2022/11/16 11:41:43;;;;;;;6.10;3.72;;;25.00;99.90;;;;;;4973464;28;20023;-44
2022/11/16 11:44:19;;;;;;;7.47;5.00;;;25.00;99.90;;;;;;4974637;28;20423;-45
2022/11/16 11:47:37;;;;;;;7.45;3.13;;;25.00;99.90;;;;;;4975848;28;20018;-44
2022/11/16 11:50:18;;;;;;;5.07;1.42;;;25.00;99.90;;;;;;4961403;28;20035;-44
2022/11/16 11:53:14;;;;;;;7.40;1.75;;;25.00;99.90;;;;;;4972623;28;20056;-43
2022/11/16 11:55:40;;;;;;;7.63;2.28;;;25.00;99.90;;;;;;4971971;28;20137;-44
2022/11/16 11:58:11;;;;;;;13.52;9.38;;;25.00;99.90;;;;;;4975443;28;20070;-44
2022/11/16 12:00:45;;;;;;;8.57;5.10;;;24.90;99.90;;;;;;4974376;28;20410;-44
2022/11/16 12:03:42;;;;;;;7.13;3.72;;;24.70;99.90;;;;;;4974535;28;20097;-44
2022/11/16 12:06:17;;;;;;;7.72;3.53;;;24.40;99.90;;;;;;4975612;28;20038;-44
2022/11/16 12:09:00;;;;;;;13.63;8.98;;;24.20;99.90;;;;;;4973230;28;20353;-44
2022/11/16 12:11:41;;;;;;;12.25;5.05;;;24.00;99.90;;;;;;4972921;28;20023;-44
2022/11/16 12:14:45;;;;;;;4.95;1.92;;;23.70;99.90;;;;;;4956894;28;20022;-43
2022/11/16 12:17:38;;;;;;;6.50;2.70;;;23.60;99.90;;;;;;4966299;28;20439;-44
2022/11/16 12:20:14;;;;;;;8.80;2.70;;;23.40;99.90;;;;;;4974376;28;20019;-44
2022/11/16 12:22:57;;;;;;;4.50;2.35;;;23.20;99.90;;;;;;4974405;28;20351;-44
2022/11/16 12:25:32;;;;;;;6.82;2.80;;;23.10;99.90;;;;;;4972924;28;20070;-44
2022/11/16 12:28:16;;;;;;;5.53;1.83;;;23.00;99.90;;;;;;4974394;28;20403;-44
2022/11/16 12:31:17;;;;;;;7.63;4.93;;;22.90;99.90;;;;;;4956680;28;20113;-44
2022/11/16 12:33:56;;;;;;;6.10;3.95;;;22.80;99.90;;;;;;4974067;28;20034;-42
2022/11/16 12:36:59;;;;;;;8.52;3.88;;;22.80;99.90;;;;;;4974185;28;20050;-42
2022/11/16 12:39:25;;;;;;;9.57;4.93;;;22.70;99.90;;;;;;4974332;28;20357;-44
2022/11/16 12:42:12;;;;;;;7.90;1.88;;;22.80;99.90;;;;;;4974230;28;20082;-43
2022/11/16 12:44:57;;;;;;;;;;;22.70;99.90;;;;;;4974564;28;20039;-43
2022/11/16 12:47:47;;;;;;;5.05;2.60;;;22.70;99.90;;;;;;4975360;28;20437;-43
2022/11/16 12:50:26;;;;;;;11.32;4.15;;;22.70;99.90;;;;;;4977898;28;20082;-42
2022/11/16 12:53:05;;;;;;;5.45;2.15;;;22.60;99.90;;;;;;4977869;28;20479;-41
2022/11/16 12:55:44;;;;;;;10.27;3.25;;;22.50;99.90;;;;;;4977792;28;20026;-42
2022/11/16 12:58:24;;;;;;;12.32;2.20;;;22.50;99.90;;;;;;4960544;28;20567;-43
2022/11/16 13:01:08;;;;;;;6.15;1.85;;;22.40;99.90;;;;;;4977493;28;20077;-43
2022/11/16 13:03:43;;;;;;;5.13;2.17;;;22.40;99.90;;;;;;4960284;28;20494;-44
2022/11/16 13:06:15;;;;;;;10.32;4.22;;;22.40;99.90;;;;;;4960393;28;20443;-47
2022/11/16 13:09:06;;;;;;;8.25;2.58;;;22.40;99.90;;;;;;4960127;28;20018;-44
2022/11/16 13:11:39;;;;;;;9.55;5.40;;;22.30;99.90;;;;;;4977817;28;20042;-43
2022/11/16 13:14:12;;;;;;;22.35;12.30;;;22.20;99.90;;;;;;4976275;28;20023;-43
2022/11/16 13:16:38;;;;;;;7.43;3.05;;;22.20;99.90;;;;;;4976333;28;20069;-43
2022/11/16 13:19:09;;;;;;;13.38;5.85;;;22.20;99.90;;;;;;4977523;28;20025;-45
2022/11/16 13:21:46;;;;;;;8.80;2.47;;;22.20;99.90;;;;;;4977584;28;20033;-42
2022/11/16 13:24:30;;;;;;;;;;;22.20;99.90;;;;;;4977943;28;20033;-43
2022/11/16 13:27:39;;;;;;;7.05;1.83;;;22.30;99.90;;;;;;4977506;28;19906;-43
2022/11/16 13:30:38;;;;;;;10.50;3.22;;;22.40;99.90;;;;;;4977131;28;20023;-44
2022/11/16 13:33:26;;;;;;;12.23;4.28;;;22.40;99.90;;;;;;4977224;28;20163;-43
2022/11/16 13:35:52;;;;;;;8.18;1.60;;;22.40;99.90;;;;;;4977062;28;20162;-44
2022/11/16 13:38:53;;;;;;;6.35;2.47;;;22.50;99.90;;;;;;4977380;28;20034;-44
2022/11/16 13:41:46;;;;;;;12.48;2.75;;;22.50;99.90;;;;;;4976959;28;20081;-51
2022/11/16 13:44:19;;;;;;;6.28;2.47;;;22.50;99.90;;;;;;4974822;28;20431;-44
2022/11/16 13:46:51;;;;;;;5.50;1.98;;;22.50;99.90;;;;;;4959387;28;20023;-44
2022/11/16 13:49:23;;;;;;;8.60;1.95;;;22.60;99.90;;;;;;4976726;28;20023;-44
2022/11/16 13:52:06;;;;;;;4.78;2.42;;;22.60;99.90;;;;;;4976629;28;20106;-44
2022/11/16 13:54:34;;;;;;;9.10;1.50;;;22.60;99.90;;;;;;4976680;28;20031;-45
2022/11/16 13:57:02;;;;;;;3.80;1.30;;;22.70;99.90;;;;;;4976796;28;20365;-44
2022/11/16 13:59:32;;;;;;;7.50;1.25;;;22.70;99.90;;;;;;4976287;28;20027;-43